Etusivu
METAR-TAF:

METAR-TAF

Lentoasemat :

Örebron lentoasema

Örebro, Ruotsi

Leveyspiiri: 59-14N, Pituuspiiri: 015-03E, korkeus merenpinnasta: 57 m

Tämänhetkinen sää

Tämä raportti tehtiin 43 minuuttia sitten, kello 17.20 UTC
Tuuli 12 kn lännestä/lounaasta puuskistuen 22 kn:hen
Lämpötila 7°C
Kosteus 87%
Ilmanpaine 1011 hPa
Näkyvyys 10 km tai enemmän
Hajonneita pilviä 1600 ft:n korkeudessa

METAR: ESOE 231720Z 24012G22KT 9999 BKN016 07/05 Q1011

Aika: 19:03 (18:03 UTC)

Sääennuste

Tämä raportti tehtiin 33 minuuttia sitten, kello 17.30 UTC
Ennuste voimassa 23. päivästä klo 18 UTC - 23. päivään klo 22 UTC
Tuuli 10 kn lounaasta
Näkyvyys 10 km tai enemmän
Hajonneita pilviä 1500 ft:n korkeudessa
Todennäköisyys 40%
23. päivästä klo 18 UTC - 23. päivään klo 22 UTC
Tuuli 15 kn lännestä/lounaasta puuskistuen 25 kn:hen
Hajonneita pilviä 1300 ft:n korkeudessa

TAF: ESOE 231730Z 2318/2322 23010KT 9999 BKN015 PROB40 2318/2322 25015G25KT BKN013

Säähavainnot ja -ennusteet yli 4000 lentoasemalta (METAR- ja TAF-raportit).

Käytössä olevat sääasemat on merkitty karttaan keltaisilla ja punaisilla pisteillä.

Aseta hiiri pisteen päälle nähdäksesi sääaseman nimen.

Klikkaa sitten nähdäksesi säähavainnot ja -ennusteet.

Kartan vaihtaminen: klikkaa mustalla rastilla varustettuja vihreitä pisteitä, niin voit zoomata sisään; viivalla varustettua vihreää pistettä, niin voit zoomata ulos tai vihreitä nuolia, niin pääset viereisille kartoille.


METAR-TAF: